Time;durP1;ratioP1;P1;durP2;ratioP2;P2;SDS_P1;SDS_P2;PMS_P1;PMS_P2;Temp;Humidity;BMP_temperature;BMP_pressure;BME280_temperature;BME280_humidity;BME280_pressure;Samples;Min_cycle;Max_cycle;Signal;HPM_P1;HPM_P2
2022/05/29 00:00:53;;;;;;;;;;;;;;;;;;5067702;28;19912;-57
2022/05/29 00:03:19;;;;;;;;;;;;;;;;;;5067832;28;20529;-58
2022/05/29 00:05:45;;;;;;;;;;;;;;;;;;5065348;28;19923;-57
2022/05/29 00:08:11;;;;;;;;;;;;;;;;;;5067347;28;19904;-57
2022/05/29 00:10:37;;;;;;;;;;;;;;;;;;5067255;28;19905;-57
2022/05/29 00:13:03;;;;;;;;;;;;;;;;;;5067602;28;19916;-58
2022/05/29 00:15:29;;;;;;;;;;;;;;;;;;5067606;28;20435;-57
2022/05/29 00:17:55;;;;;;;;;;;;;;;;;;5068006;28;19908;-57
2022/05/29 00:20:21;;;;;;;;;;;;;;;;;;5066377;28;19908;-58
2022/05/29 00:22:47;;;;;;;;;;;;;;;;;;5066748;28;19962;-57
2022/05/29 00:25:12;;;;;;;;;;;;;;;;;;5067123;28;19975;-57
2022/05/29 00:27:38;;;;;;;;;;;;;;;;;;5067069;28;19904;-57
2022/05/29 00:30:04;;;;;;;;;;;;;;;;;;5067339;28;19954;-57
2022/05/29 00:32:30;;;;;;;;;;;;;;;;;;5066994;28;19904;-57
2022/05/29 00:34:56;;;;;;;;;;;;;;;;;;5065839;28;19926;-57
2022/05/29 00:37:22;;;;;;;;;;;;;;;;;;5066945;28;19919;-57
2022/05/29 00:39:49;;;;;;;;;;;;;;;;;;5066645;28;19951;-57
2022/05/29 00:42:15;;;;;;;;;;;;;;;;;;5067040;28;20481;-57
2022/05/29 00:44:42;;;;;;;;;;;;;;;;;;5067086;28;19904;-57
2022/05/29 00:47:08;;;;;;;;;;;;;;;;;;5066960;28;19954;-57
2022/05/29 00:49:34;;;;;;;;;;;;;;;;;;5065578;28;20614;-58
2022/05/29 00:52:00;;;;;;;;;;;;;;;;;;5066842;28;19923;-58
2022/05/29 00:54:26;;;;;;;;;;;;;;;;;;5067236;28;19919;-57
2022/05/29 00:56:52;;;;;;;;;;;;;;;;;;5066575;28;19909;-57
2022/05/29 00:59:17;;;;;;;;;;;;;;;;;;5066829;28;19904;-58
2022/05/29 01:01:43;;;;;;;;;;;;;;;;;;5065171;28;19908;-58
2022/05/29 01:04:09;;;;;;;;;;;;;;;;;;5065668;28;19905;-57
2022/05/29 01:06:35;;;;;;;;;;;;;;;;;;5066517;28;19904;-57
2022/05/29 01:09:01;;;;;;;;;;;;;;;;;;5065796;28;21409;-57
2022/05/29 01:11:28;;;;;;;;;;;;;;;;;;5067308;28;19955;-57
2022/05/29 01:13:54;;;;;;;;;;;;;;;;;;5066850;28;19912;-57
2022/05/29 01:16:20;;;;;;;;;;;;;;;;;;5065496;28;19921;-58
2022/05/29 01:18:45;;;;;;;;;;;;;;;;;;5066015;28;20019;-57
2022/05/29 01:21:11;;;;;;;;;;;;;;;;;;5066561;28;19909;-58
2022/05/29 01:23:37;;;;;;;;;;;;;;;;;;5066224;28;19905;-58
2022/05/29 01:26:04;;;;;;;;;;;;;;;;;;5067868;28;19968;-58
2022/05/29 01:28:30;;;;;;;;;;;;;;;;;;5070371;28;19908;-57
2022/05/29 01:30:55;;;;;;;;;;;;;;;;;;5069585;28;19930;-57
2022/05/29 01:33:21;;;;;;;;;;;;;;;;;;5070645;28;19912;-57
2022/05/29 01:35:47;;;;;;;;;;;;;;;;;;5070338;28;20025;-57
2022/05/29 01:38:13;;;;;;;;;;;;;;;;;;5070193;28;19908;-57
2022/05/29 01:40:39;;;;;;;;;;;;;;;;;;5070194;28;19905;-57
2022/05/29 01:43:05;;;;;;;;;;;;;;;;;;5070249;28;19914;-57
2022/05/29 01:45:31;;;;;;;;;;;;;;;;;;5069212;28;19909;-57
2022/05/29 01:47:57;;;;;;;;;;;;;;;;;;5069701;28;19908;-58
2022/05/29 01:50:23;;;;;;;;;;;;;;;;;;5068414;28;19954;-58
2022/05/29 01:52:49;;;;;;;;;;;;;;;;;;5069746;28;20619;-55
2022/05/29 01:55:15;;;;;;;;;;;;;;;;;;5070123;28;19912;-57
2022/05/29 01:57:41;;;;;;;;;;;;;;;;;;5070018;28;19943;-57
2022/05/29 02:00:08;;;;;;;;;;;;;;;;;;5069881;28;19924;-57
2022/05/29 02:02:34;;;;;;;;;;;;;;;;;;5069556;28;20443;-57
2022/05/29 02:05:00;;;;;;;;;;;;;;;;;;5068765;28;19908;-57
2022/05/29 02:10:10;;;;;;;;;;;;;;;;;;5069809;28;19990;-57
2022/05/29 02:12:36;;;;;;;;;;;;;;;;;;5069239;28;19947;-57
2022/05/29 02:15:02;;;;;;;;;;;;;;;;;;5069923;28;19908;-57
2022/05/29 02:17:28;;;;;;;;;;;;;;;;;;5070007;28;19912;-57
2022/05/29 02:19:54;;;;;;;;;;;;;;;;;;5068319;28;19912;-57
2022/05/29 02:22:23;;;;;;;;;;;;;;;;;;5069491;28;19950;-57
2022/05/29 02:24:50;;;;;;;;;;;;;;;;;;5069560;28;19919;-57
2022/05/29 02:27:16;;;;;;;;;;;;;;;;;;5069536;28;19904;-57
2022/05/29 02:29:42;;;;;;;;;;;;;;;;;;5068131;28;19931;-57
2022/05/29 02:32:08;;;;;;;;;;;;;;;;;;5069523;28;19915;-57
2022/05/29 02:34:34;;;;;;;;;;;;;;;;;;5068941;28;19912;-57
2022/05/29 02:37:00;;;;;;;;;;;;;;;;;;5068355;28;19904;-57
2022/05/29 02:39:26;;;;;;;;;;;;;;;;;;5069024;28;19927;-57
2022/05/29 02:41:52;;;;;;;;;;;;;;;;;;5068008;28;20026;-57
2022/05/29 02:44:18;;;;;;;;;;;;;;;;;;5069367;28;19904;-57
2022/05/29 02:46:44;;;;;;;;;;;;;;;;;;5068872;28;20590;-57
2022/05/29 02:49:10;;;;;;;;;;;;;;;;;;5069160;28;19912;-57
2022/05/29 02:51:36;;;;;;;;;;;;;;;;;;5068555;28;19912;-57
2022/05/29 02:54:02;;;;;;;;;;;;;;;;;;5069077;28;19912;-57
2022/05/29 02:56:28;;;;;;;;;;;;;;;;;;5068231;28;19930;-57
2022/05/29 02:58:54;;;;;;;;;;;;;;;;;;5068978;28;19912;-57
2022/05/29 03:01:20;;;;;;;;;;;;;;;;;;5068909;28;19909;-57
2022/05/29 03:03:46;;;;;;;;;;;;;;;;;;5068310;28;19973;-57
2022/05/29 03:06:12;;;;;;;;;;;;;;;;;;5068275;28;19926;-57
2022/05/29 03:08:38;;;;;;;;;;;;;;;;;;5067147;28;19908;-57
2022/05/29 03:11:04;;;;;;;;;;;;;;;;;;5066783;28;19943;-57
2022/05/29 03:13:30;;;;;;;;;;;;;;;;;;5068368;28;20001;-57
2022/05/29 03:15:56;;;;;;;;;;;;;;;;;;5068598;28;20382;-57
2022/05/29 03:18:22;;;;;;;;;;;;;;;;;;5068274;28;19911;-57
2022/05/29 03:20:47;;;;;;;;;;;;;;;;;;5068562;28;19901;-57
2022/05/29 03:23:13;;;;;;;;;;;;;;;;;;5066639;28;19982;-57
2022/05/29 03:25:39;;;;;;;;;;;;;;;;;;5067403;28;19916;-57
2022/05/29 03:28:05;;;;;;;;;;;;;;;;;;5066592;28;20010;-57
2022/05/29 03:30:31;;;;;;;;;;;;;;;;;;5068322;28;20363;-57
2022/05/29 03:32:57;;;;;;;;;;;;;;;;;;5068632;28;19904;-57
2022/05/29 03:35:23;;;;;;;;;;;;;;;;;;5067906;28;19924;-57
2022/05/29 03:37:49;;;;;;;;;;;;;;;;;;5067950;28;19908;-57
2022/05/29 03:40:15;;;;;;;;;;;;;;;;;;5066393;28;20391;-57
2022/05/29 03:42:41;;;;;;;;;;;;;;;;;;5066986;28;20490;-57
2022/05/29 03:45:08;;;;;;;;;;;;;;;;;;5068043;28;19912;-57
2022/05/29 03:47:34;;;;;;;;;;;;;;;;;;5068132;28;20361;-57
2022/05/29 03:50:00;;;;;;;;;;;;;;;;;;5065868;28;20594;-57
2022/05/29 03:52:25;;;;;;;;;;;;;;;;;;5068198;28;19909;-57
2022/05/29 03:54:51;;;;;;;;;;;;;;;;;;5067593;28;20007;-57
2022/05/29 03:57:17;;;;;;;;;;;;;;;;;;5066201;28;20010;-57
2022/05/29 03:59:43;;;;;;;;;;;;;;;;;;5067269;28;19935;-57
2022/05/29 04:02:09;;;;;;;;;;;;;;;;;;5067410;28;19908;-57
2022/05/29 04:04:35;;;;;;;;;;;;;;;;;;5067705;28;20509;-57
2022/05/29 04:07:01;;;;;;;;;;;;;;;;;;5066499;28;19998;-57
2022/05/29 04:12:13;;;;;;;;;;;;;;;;;;5067188;28;19915;-57
2022/05/29 04:14:39;;;;;;;;;;;;;;;;;;5067529;28;19973;-57
2022/05/29 04:17:05;;;;;;;;;;;;;;;;;;5067034;28;19908;-57
2022/05/29 04:19:31;;;;;;;;;;;;;;;;;;5067394;28;19908;-57
2022/05/29 04:21:58;;;;;;;;;;;;;;;;;;5065914;28;19908;-57
2022/05/29 04:24:24;;;;;;;;;;;;;;;;;;5067631;28;19905;-57
2022/05/29 04:26:50;;;;;;;;;;;;;;;;;;5067050;28;19908;-57
2022/05/29 04:29:16;;;;;;;;;;;;;;;;;;5066941;28;20398;-57
2022/05/29 04:32:59;;;;;;;;;;;;;;;;;;5066298;28;19908;-57
2022/05/29 04:34:28;;;;;;;;;;;;;;;;;;5067707;28;19919;-57
2022/05/29 04:36:54;;;;;;;;;;;;;;;;;;5067323;28;19904;-57
2022/05/29 04:39:20;;;;;;;;;;;;;;;;;;5066781;28;19931;-57
2022/05/29 04:41:46;;;;;;;;;;;;;;;;;;5066513;28;19912;-57
2022/05/29 04:44:12;;;;;;;;;;;;;;;;;;5066833;28;19904;-57
2022/05/29 04:46:38;;;;;;;;;;;;;;;;;;5066879;28;19928;-57
2022/05/29 04:49:04;;;;;;;;;;;;;;;;;;5066706;28;19908;-57
2022/05/29 04:51:30;;;;;;;;;;;;;;;;;;5064837;28;20019;-57
2022/05/29 04:53:55;;;;;;;;;;;;;;;;;;5065851;28;19927;-57
2022/05/29 04:56:21;;;;;;;;;;;;;;;;;;5066676;28;19908;-57
2022/05/29 04:58:47;;;;;;;;;;;;;;;;;;5066718;28;19908;-57
2022/05/29 05:01:13;;;;;;;;;;;;;;;;;;5065702;28;20023;-57
2022/05/29 05:03:39;;;;;;;;;;;;;;;;;;5065705;28;19905;-57
2022/05/29 05:06:05;;;;;;;;;;;;;;;;;;5066373;28;19919;-57
2022/05/29 05:08:31;;;;;;;;;;;;;;;;;;5066702;28;19912;-57
2022/05/29 05:10:57;;;;;;;;;;;;;;;;;;5067407;28;19912;-57
2022/05/29 05:13:23;;;;;;;;;;;;;;;;;;5066149;28;20299;-57
2022/05/29 05:15:49;;;;;;;;;;;;;;;;;;5066610;28;20439;-57
2022/05/29 05:18:15;;;;;;;;;;;;;;;;;;5064471;28;19958;-57
2022/05/29 05:20:41;;;;;;;;;;;;;;;;;;5066517;28;19931;-57
2022/05/29 05:23:07;;;;;;;;;;;;;;;;;;5066212;28;19904;-57
2022/05/29 05:25:33;;;;;;;;;;;;;;;;;;5066647;28;19911;-57
2022/05/29 05:27:59;;;;;;;;;;;;;;;;;;5066653;28;19904;-57
2022/05/29 05:30:25;;;;;;;;;;;;;;;;;;5066951;28;19953;-57
2022/05/29 05:32:51;;;;;;;;;;;;;;;;;;5065770;28;20002;-57
2022/05/29 05:35:17;;;;;;;;;;;;;;;;;;5064309;28;19912;-57
2022/05/29 05:37:44;;;;;;;;;;;;;;;;;;5066629;28;20026;-57
2022/05/29 05:40:10;;;;;;;;;;;;;;;;;;5065798;28;19993;-57
2022/05/29 05:42:36;;;;;;;;;;;;;;;;;;5066390;28;20357;-57
2022/05/29 05:45:02;;;;;;;;;;;;;;;;;;5066574;28;19900;-57
2022/05/29 05:47:28;;;;;;;;;;;;;;;;;;5065676;28;19909;-57
2022/05/29 05:49:54;;;;;;;;;;;;;;;;;;5068090;28;19908;-57
2022/05/29 05:52:20;;;;;;;;;;;;;;;;;;5067851;28;19912;-57
2022/05/29 05:54:46;;;;;;;;;;;;;;;;;;5066648;28;19965;-57
2022/05/29 05:57:12;;;;;;;;;;;;;;;;;;5065573;28;19908;-57
2022/05/29 05:59:38;;;;;;;;;;;;;;;;;;5065953;28;19904;-57
2022/05/29 06:02:04;;;;;;;;;;;;;;;;;;5064913;28;19908;-57
2022/05/29 06:04:29;;;;;;;;;;;;;;;;;;5066530;28;19995;-58
2022/05/29 06:06:55;;;;;;;;;;;;;;;;;;5066903;28;19904;-57
2022/05/29 06:09:22;;;;;;;;;;;;;;;;;;5066173;28;19954;-57
2022/05/29 06:11:48;;;;;;;;;;;;;;;;;;5065420;28;19947;-57
2022/05/29 06:14:14;;;;;;;;;;;;;;;;;;5068018;28;19970;-57
2022/05/29 06:16:40;;;;;;;;;;;;;;;;;;5070032;28;19940;-57
2022/05/29 06:19:06;;;;;;;;;;;;;;;;;;5069766;28;19908;-57
2022/05/29 06:21:32;;;;;;;;;;;;;;;;;;5069843;28;19958;-57
2022/05/29 06:23:58;;;;;;;;;;;;;;;;;;5070539;28;19944;-57
2022/05/29 06:26:24;;;;;;;;;;;;;;;;;;5069892;28;19905;-57
2022/05/29 06:28:50;;;;;;;;;;;;;;;;;;5067973;28;20395;-57
2022/05/29 06:31:16;;;;;;;;;;;;;;;;;;5069681;28;19958;-57
2022/05/29 06:33:42;;;;;;;;;;;;;;;;;;5069432;28;19965;-57
2022/05/29 06:36:08;;;;;;;;;;;;;;;;;;5069297;28;19904;-58
2022/05/29 06:38:34;;;;;;;;;;;;;;;;;;5064041;28;19909;-57
2022/05/29 06:41:00;;;;;;;;;;;;;;;;;;5063624;28;19904;-57
2022/05/29 06:43:26;;;;;;;;;;;;;;;;;;5068977;28;19908;-57
2022/05/29 06:45:52;;;;;;;;;;;;;;;;;;5069465;28;19908;-58
2022/05/29 06:48:18;;;;;;;;;;;;;;;;;;5069151;28;19905;-57
2022/05/29 06:50:44;;;;;;;;;;;;;;;;;;5069557;28;19916;-58
2022/05/29 06:53:11;;;;;;;;;;;;;;;;;;5067805;28;19908;-58
2022/05/29 06:55:38;;;;;;;;;;;;;;;;;;5067703;28;19912;-58
2022/05/29 06:58:04;;;;;;;;;;;;;;;;;;5068899;28;19994;-57
2022/05/29 07:08:45;;;;;;;;;;;;;;;;;;5055292;28;19916;-58
2022/05/29 07:11:12;;;;;;;;;;;;;;;;;;5064353;28;19908;-58
2022/05/29 07:13:38;;;;;;;;;;;;;;;;;;5067181;28;19908;-57
2022/05/29 07:16:04;;;;;;;;;;;;;;;;;;5067150;28;20286;-58
2022/05/29 07:18:31;;;;;;;;;;;;;;;;;;5066960;28;19915;-58
2022/05/29 07:20:57;;;;;;;;;;;;;;;;;;5068077;28;19922;-58
2022/05/29 07:23:23;;;;;;;;;;;;;;;;;;5066371;28;19999;-57
2022/05/29 07:25:49;;;;;;;;;;;;;;;;;;5067038;28;19962;-57
2022/05/29 07:28:15;;;;;;;;;;;;;;;;;;5066747;28;20197;-58
2022/05/29 07:30:42;;;;;;;;;;;;;;;;;;5064727;28;19911;-58
2022/05/29 07:33:08;;;;;;;;;;;;;;;;;;5066410;28;19908;-59
2022/05/29 07:35:34;;;;;;;;;;;;;;;;;;5063033;28;19958;-58
2022/05/29 07:38:01;;;;;;;;;;;;;;;;;;5065170;28;20435;-58
2022/05/29 07:40:28;;;;;;;;;;;;;;;;;;5055790;28;19958;-58
2022/05/29 07:45:38;;;;;;;;;;;;;;;;;;5067201;28;19927;-58
2022/05/29 07:48:04;;;;;;;;;;;;;;;;;;5067002;28;20367;-58
2022/05/29 07:50:31;;;;;;;;;;;;;;;;;;5066053;28;19975;-59
2022/05/29 07:52:57;;;;;;;;;;;;;;;;;;5067313;28;19912;-58
2022/05/29 07:55:24;;;;;;;;;;;;;;;;;;5066271;28;19916;-58
2022/05/29 07:57:50;;;;;;;;;;;;;;;;;;5063292;28;19908;-58
2022/05/29 08:00:16;;;;;;;;;;;;;;;;;;5055721;28;19961;-58
2022/05/29 08:02:42;;;;;;;;;;;;;;;;;;5066918;28;20003;-59
2022/05/29 08:05:09;;;;;;;;;;;;;;;;;;5066862;28;19908;-58
2022/05/29 08:07:35;;;;;;;;;;;;;;;;;;5066491;28;19940;-58
2022/05/29 08:10:00;;;;;;;;;;;;;;;;;;5066917;28;20291;-58
2022/05/29 08:12:27;;;;;;;;;;;;;;;;;;5082586;28;19913;-58
2022/05/29 08:14:53;;;;;;;;;;;;;;;;;;5066806;28;19975;-58
2022/05/29 08:17:19;;;;;;;;;;;;;;;;;;5066401;28;19952;-58
2022/05/29 08:19:45;;;;;;;;;;;;;;;;;;5069719;28;20391;-58
2022/05/29 08:22:11;;;;;;;;;;;;;;;;;;5059547;28;20062;-58
2022/05/29 08:32:51;;;;;;;;;;;;;;;;;;5066322;28;19911;-58
2022/05/29 08:35:17;;;;;;;;;;;;;;;;;;5064536;28;19920;-58
2022/05/29 08:37:43;;;;;;;;;;;;;;;;;;5065175;28;19924;-57
2022/05/29 08:40:09;;;;;;;;;;;;;;;;;;5066070;28;19909;-57
2022/05/29 08:42:35;;;;;;;;;;;;;;;;;;5065090;28;19985;-57
2022/05/29 08:45:01;;;;;;;;;;;;;;;;;;5070504;28;19912;-57
2022/05/29 08:47:27;;;;;;;;;;;;;;;;;;5068065;28;19923;-57
2022/05/29 08:49:53;;;;;;;;;;;;;;;;;;5066547;28;19939;-57
2022/05/29 08:52:19;;;;;;;;;;;;;;;;;;5068717;28;19908;-57
2022/05/29 08:54:45;;;;;;;;;;;;;;;;;;5065498;28;19965;-58
2022/05/29 08:57:12;;;;;;;;;;;;;;;;;;5070667;28;19912;-58
2022/05/29 08:59:38;;;;;;;;;;;;;;;;;;5066473;28;19908;-57
2022/05/29 09:02:04;;;;;;;;;;;;;;;;;;5069787;28;19908;-57
2022/05/29 09:04:30;;;;;;;;;;;;;;;;;;5068461;28;20274;-57
2022/05/29 09:06:56;;;;;;;;;;;;;;;;;;5077091;28;19908;-58
2022/05/29 09:09:22;;;;;;;;;;;;;;;;;;5077051;28;19904;-57
2022/05/29 09:11:48;;;;;;;;;;;;;;;;;;5075307;28;19915;-58
2022/05/29 09:14:14;;;;;;;;;;;;;;;;;;5067294;28;19912;-58
2022/05/29 09:16:40;;;;;;;;;;;;;;;;;;5067758;28;19926;-58
2022/05/29 09:19:08;;;;;;;;;;;;;;;;;;5066805;28;19911;-58
2022/05/29 09:21:33;;;;;;;;;;;;;;;;;;5072865;28;19909;-58
2022/05/29 09:23:59;;;;;;;;;;;;;;;;;;5068425;28;20275;-58
2022/05/29 09:26:25;;;;;;;;;;;;;;;;;;5070682;28;19905;-57
2022/05/29 09:28:51;;;;;;;;;;;;;;;;;;5067415;28;19912;-58
2022/05/29 09:31:17;;;;;;;;;;;;;;;;;;5068505;28;19908;-58
2022/05/29 09:33:43;;;;;;;;;;;;;;;;;;5066993;28;19916;-57
2022/05/29 09:36:10;;;;;;;;;;;;;;;;;;5068634;28;20042;-57
2022/05/29 09:38:36;;;;;;;;;;;;;;;;;;5068683;28;19905;-57
2022/05/29 09:41:02;;;;;;;;;;;;;;;;;;5066578;28;19908;-58
2022/05/29 09:43:29;;;;;;;;;;;;;;;;;;5064669;28;19974;-57
2022/05/29 09:45:55;;;;;;;;;;;;;;;;;;5067606;28;19915;-57
2022/05/29 09:51:05;;;;;;;;;;;;;;;;;;5070965;28;19916;-57
2022/05/29 09:53:31;;;;;;;;;;;;;;;;;;5071032;28;19912;-57
2022/05/29 09:55:57;;;;;;;;;;;;;;;;;;5069891;28;19908;-58
2022/05/29 09:58:23;;;;;;;;;;;;;;;;;;5070697;28;19912;-57
2022/05/29 10:00:49;;;;;;;;;;;;;;;;;;5076964;28;19916;-57
2022/05/29 10:03:15;;;;;;;;;;;;;;;;;;5070482;28;20451;-58
2022/05/29 10:05:41;;;;;;;;;;;;;;;;;;5070711;28;19911;-57
2022/05/29 10:08:07;;;;;;;;;;;;;;;;;;5067461;28;19919;-56
2022/05/29 10:10:33;;;;;;;;;;;;;;;;;;5069662;28;19916;-57
2022/05/29 10:12:59;;;;;;;;;;;;;;;;;;5070876;28;19908;-58
2022/05/29 10:15:25;;;;;;;;;;;;;;;;;;5070114;28;19916;-57
2022/05/29 10:17:51;;;;;;;;;;;;;;;;;;5069697;28;19912;-57
2022/05/29 10:20:35;;;;;;;1.97;0.70;;;;;;;;;;5069290;28;20463;-55
2022/05/29 10:23:09;;;;;;;1.02;0.47;;;;;;;;;;5068441;28;20374;-57
2022/05/29 10:25:40;;;;;;;0.52;0.50;;;;;;;;;;5070007;28;20036;-56
2022/05/29 10:28:12;;;;;;;0.68;0.63;;;;;;;;;;5064089;28;20074;-56
2022/05/29 10:30:47;;;;;;;1.42;0.80;;;;;;;;;;5069897;28;20036;-56
2022/05/29 10:33:25;;;;;;;0.50;0.47;;;;;;;;;;5069412;28;20027;-55
2022/05/29 10:35:54;;;;;;;0.40;0.40;;;;;;;;;;5069964;28;20052;-56
2022/05/29 10:38:22;;;;;;;1.10;0.70;;;;;;;;;;5069392;28;20403;-57
2022/05/29 10:40:49;;;;;;;0.68;0.60;;;;;;;;;;5069202;28;20075;-56
2022/05/29 10:43:34;;;;;;;1.38;0.70;;;;;;;;;;5068732;28;20027;-57
2022/05/29 10:46:20;;;;;;;1.45;0.60;;;;;;;;;;5064330;28;20035;-57
2022/05/29 10:49:34;;;;;;;0.93;0.60;;;;;;;;;;5067164;28;20032;-57
2022/05/29 10:52:18;;;;;;;1.20;0.80;;;;;;;;;;5050013;28;20036;-55
2022/05/29 10:55:13;;;;;;;0.93;0.77;;;;;;;;;;5069902;28;20162;-56
2022/05/29 10:57:58;;;;;;;1.17;0.73;;;;;;;;;;5066371;28;20036;-56
2022/05/29 11:00:45;;;;;;;1.27;0.63;;;;;;;;;;5078015;28;20510;-54
2022/05/29 11:03:23;;;;;;;;;;;;;;;;;;5070194;28;20060;-56
2022/05/29 11:05:49;;;;;;;;;;;;;;;;;;5085474;28;21147;-57
2022/05/29 11:08:15;;;;;;;;;;;;;;;;;;5070671;28;20033;-57
2022/05/29 11:10:41;;;;;;;;;;;;;;;;;;5068362;28;20011;-57
2022/05/29 11:13:07;;;;;;;;;;;;;;;;;;5078282;28;19908;-57
2022/05/29 11:15:33;;;;;;;;;;;;;;;;;;5086226;28;19962;-57
2022/05/29 11:17:59;;;;;;;;;;;;;;;;;;5082944;28;20330;-57
2022/05/29 11:20:25;;;;;;;;;;;;;;;;;;5069384;28;19958;-57
2022/05/29 11:22:51;;;;;;;;;;;;;;;;;;5068971;28;19916;-57
2022/05/29 11:25:17;;;;;;;;;;;;;;;;;;5069107;28;19905;-57
2022/05/29 11:27:42;;;;;;;;;;;;;;;;;;5081488;28;19947;-57
2022/05/29 11:30:08;;;;;;;;;;;;;;;;;;5087553;28;19915;-57
2022/05/29 11:32:34;;;;;;;;;;;;;;;;;;5071312;28;19940;-57
2022/05/29 11:35:00;;;;;;;;;;;;;;;;;;5081838;28;19912;-57
2022/05/29 11:37:26;;;;;;;;;;;;;;;;;;5071412;28;20007;-58
2022/05/29 11:39:52;;;;;;;;;;;;;;;;;;5072392;28;19931;-57
2022/05/29 11:42:18;;;;;;;;;;;;;;;;;;5089066;28;19915;-58
2022/05/29 11:44:44;;;;;;;;;;;;;;;;;;5068077;28;19988;-57
2022/05/29 11:52:40;;;;;;;;;;;;;;;;;;5067017;28;19919;-58
2022/05/29 11:55:05;;;;;;;;;;;;;;;;;;5067687;28;19912;-57
2022/05/29 11:57:31;;;;;;;;;;;;;;;;;;5077006;28;19908;-57
2022/05/29 11:59:57;;;;;;;;;;;;;;;;;;5069225;28;20060;-58
2022/05/29 12:02:24;;;;;;;;;;;;;;;;;;5068249;28;19920;-58
2022/05/29 12:04:49;;;;;;;;;;;;;;;;;;5066558;28;19912;-57
2022/05/29 12:07:16;;;;;;;;;;;;;;;;;;5070438;28;19908;-58
2022/05/29 12:09:42;;;;;;;;;;;;;;;;;;5067341;28;20279;-58
2022/05/29 12:12:08;;;;;;;;;;;;;;;;;;5071081;28;19912;-57
2022/05/29 12:14:34;;;;;;;;;;;;;;;;;;5075430;28;19912;-57
2022/05/29 12:17:00;;;;;;;;;;;;;;;;;;5068122;28;20461;-58
2022/05/29 12:19:26;;;;;;;;;;;;;;;;;;5082505;28;19954;-58
2022/05/29 12:21:52;;;;;;;;;;;;;;;;;;5068315;28;19905;-58
2022/05/29 12:24:18;;;;;;;;;;;;;;;;;;5068287;28;19912;-57
2022/05/29 12:26:44;;;;;;;;;;;;;;;;;;5071011;28;19927;-58
2022/05/29 12:29:10;;;;;;;;;;;;;;;;;;5081449;28;19911;-58
2022/05/29 12:31:36;;;;;;;;;;;;;;;;;;5086868;28;19904;-58
2022/05/29 12:34:02;;;;;;;;;;;;;;;;;;5067674;28;20449;-58
2022/05/29 12:36:28;;;;;;;;;;;;;;;;;;5071842;28;19912;-58
2022/05/29 12:38:54;;;;;;;;;;;;;;;;;;5088658;28;19990;-57
2022/05/29 12:41:20;;;;;;;;;;;;;;;;;;5070736;28;19919;-58
2022/05/29 12:43:46;;;;;;;;;;;;;;;;;;5080319;28;19908;-57
2022/05/29 12:46:13;;;;;;;;;;;;;;;;;;5083766;28;20047;-58
2022/05/29 12:48:40;;;;;;;;;;;;;;;;;;5086591;28;20386;-58
2022/05/29 12:51:05;;;;;;;;;;;;;;;;;;5075842;28;19916;-58
2022/05/29 12:53:31;;;;;;;;;;;;;;;;;;5078796;28;20346;-58
2022/05/29 12:55:57;;;;;;;;;;;;;;;;;;5081033;28;19908;-58
2022/05/29 12:58:23;;;;;;;;;;;;;;;;;;5075495;28;20362;-58
2022/05/29 13:00:49;;;;;;;;;;;;;;;;;;5086886;28;19968;-58
2022/05/29 13:03:15;;;;;;;;;;;;;;;;;;5084764;28;19937;-58
2022/05/29 13:05:42;;;;;;;;;;;;;;;;;;5083704;28;19997;-58
2022/05/29 13:08:08;;;;;;;;;;;;;;;;;;5080610;28;19912;-58
2022/05/29 13:10:34;;;;;;;;;;;;;;;;;;5082205;28;19912;-58
2022/05/29 13:13:00;;;;;;;;;;;;;;;;;;5066788;28;20775;-58
2022/05/29 13:15:26;;;;;;;;;;;;;;;;;;5068478;28;20013;-58
2022/05/29 13:17:52;;;;;;;;;;;;;;;;;;5079671;28;19908;-58
2022/05/29 13:20:20;;;;;;;;;;;;;;;;;;5063016;28;19912;-58
2022/05/29 13:22:46;;;;;;;;;;;;;;;;;;5091775;28;20008;-58
2022/05/29 13:25:12;;;;;;;;;;;;;;;;;;5081602;28;20376;-58
2022/05/29 13:27:38;;;;;;;;;;;;;;;;;;5073306;28;19911;-58
2022/05/29 13:30:04;;;;;;;;;;;;;;;;;;5072817;28;20428;-58
2022/05/29 13:32:30;;;;;;;;;;;;;;;;;;5073238;28;19912;-60
2022/05/29 13:34:56;;;;;;;;;;;;;;;;;;5070092;28;19916;-58
2022/05/29 13:37:22;;;;;;;;;;;;;;;;;;5091854;28;19935;-57
2022/05/29 13:39:48;;;;;;;;;;;;;;;;;;5089076;28;19963;-57
2022/05/29 13:42:14;;;;;;;;;;;;;;;;;;5077723;28;20004;-58
2022/05/29 13:44:40;;;;;;;;;;;;;;;;;;5089171;28;19908;-58
2022/05/29 13:47:05;;;;;;;;;;;;;;;;;;5093133;28;19930;-58
2022/05/29 13:49:31;;;;;;;;;;;;;;;;;;5081714;28;20272;-58
2022/05/29 13:51:57;;;;;;;;;;;;;;;;;;5073138;28;19909;-57
2022/05/29 13:54:23;;;;;;;;;;;;;;;;;;5071049;28;19939;-43
2022/05/29 13:56:49;;;;;;;;;;;;;;;;;;5072793;28;20088;-43
2022/05/29 14:04:45;;;;;;;;;;;;;;;;;;5074104;28;19962;-57
2022/05/29 14:07:13;;;;;;;;;;;;;;;;;;5056041;28;19947;-58
2022/05/29 14:09:39;;;;;;;;;;;;;;;;;;5059071;28;19905;-58
2022/05/29 14:12:06;;;;;;;;;;;;;;;;;;5069341;28;19915;-58
2022/05/29 14:14:37;;;;;;;;;;;;;;;;;;5069770;28;19921;-57
2022/05/29 14:17:03;;;;;;;;;;;;;;;;;;5070614;28;20399;-57
2022/05/29 14:19:29;;;;;;;;;;;;;;;;;;5079970;28;19961;-58
2022/05/29 14:21:55;;;;;;;;;;;;;;;;;;5073637;28;19947;-58
2022/05/29 14:24:21;;;;;;;;;;;;;;;;;;5082255;28;19953;-58
2022/05/29 14:26:52;;;;;;;;;;;;;;;;;;5071938;28;19904;-58
2022/05/29 14:29:18;;;;;;;;;;;;;;;;;;5072989;28;19966;-45
2022/05/29 14:31:44;;;;;;;;;;;;;;;;;;5070913;28;20557;-44
2022/05/29 14:34:10;;;;;;;;;;;;;;;;;;5071948;28;19921;-44
2022/05/29 14:36:36;;;;;;;;;;;;;;;;;;5065383;28;20315;-44
2022/05/29 14:39:02;;;;;;;;;;;;;;;;;;5068620;28;19920;-43
2022/05/29 14:41:27;;;;;;;;;;;;;;;;;;5075962;28;19908;-43
2022/05/29 14:43:54;;;;;;;;;;;;;;;;;;5069707;28;19912;-44
2022/05/29 14:46:30;;;;;;;;;;;;;;;;;;5081406;28;19998;-44
2022/05/29 14:48:56;;;;;;;;;;;;;;;;;;5063069;28;19947;-44
2022/05/29 14:51:22;;;;;;;;;;;;;;;;;;5071778;28;19942;-45
2022/05/29 14:53:48;;;;;;;;;;;;;;;;;;5079108;28;19982;-45
2022/05/29 14:56:14;;;;;;;;;;;;;;;;;;5070513;28;19908;-42
2022/05/29 14:58:40;;;;;;;;;;;;;;;;;;5068379;28;19908;-44
2022/05/29 15:01:06;;;;;;;;;;;;;;;;;;5070022;28;19964;-44
2022/05/29 15:03:32;;;;;;;;;;;;;;;;;;5085069;28;19916;-43
2022/05/29 15:05:58;;;;;;;;;;;;;;;;;;5068783;28;19931;-45
2022/05/29 15:11:09;;;;;;;;;;;;;;;;;;5070435;28;20066;-48
2022/05/29 15:13:56;;;;;;;;;;;;;;;;;;5070088;28;20007;-43
2022/05/29 15:16:21;;;;;;;;;;;;;;;;;;5070600;28;19908;-44
2022/05/29 15:18:47;;;;;;;;;;;;;;;;;;5068635;28;19935;-44
2022/05/29 15:24:11;;;;;;;;;;;;;;;;;;5086222;28;20416;-44
2022/05/29 15:26:37;;;;;;;;;;;;;;;;;;5083731;28;20367;-44
2022/05/29 15:29:03;;;;;;;;;;;;;;;;;;5076612;28;20303;-43
2022/05/29 15:31:29;;;;;;;;;;;;;;;;;;5067241;28;19909;-45
2022/05/29 15:33:55;;;;;;;;;;;;;;;;;;5085331;28;19970;-46
2022/05/29 15:36:21;;;;;;;;;;;;;;;;;;5079777;28;19915;-46
2022/05/29 15:38:47;;;;;;;;;;;;;;;;;;5068263;28;19908;-46
2022/05/29 15:41:13;;;;;;;;;;;;;;;;;;5067149;28;19915;-46
2022/05/29 15:43:39;;;;;;;;;;;;;;;;;;5088410;28;19938;-44
2022/05/29 15:46:05;;;;;;;;;;;;;;;;;;5071262;28;19926;-45
2022/05/29 15:48:31;;;;;;;;;;;;;;;;;;5069791;28;19908;-46
2022/05/29 15:50:57;;;;;;;;;;;;;;;;;;5061261;28;19912;-46
2022/05/29 15:53:23;;;;;;;;;;;;;;;;;;5070308;28;19920;-45
2022/05/29 15:55:49;;;;;;;;;;;;;;;;;;5071440;28;19917;-44
2022/05/29 15:58:15;;;;;;;;;;;;;;;;;;5065362;28;19953;-44
2022/05/29 16:00:41;;;;;;;;;;;;;;;;;;5063041;28;20326;-46
2022/05/29 16:03:07;;;;;;;;;;;;;;;;;;5067511;28;19908;-45
2022/05/29 16:05:33;;;;;;;;;;;;;;;;;;5067867;28;19935;-46
2022/05/29 16:07:59;;;;;;;;;;;;;;;;;;5065765;28;19912;-44
2022/05/29 16:10:25;;;;;;;;;;;;;;;;;;5066771;28;19924;-44
2022/05/29 16:12:51;;;;;;;;;;;;;;;;;;5071471;28;19961;-44
2022/05/29 16:15:17;;;;;;;;;;;;;;;;;;5065059;28;19916;-43
2022/05/29 16:17:48;;;;;;;;;;;;;;;;;;5066771;28;19916;-44
2022/05/29 16:20:14;;;;;;;;;;;;;;;;;;5064966;28;19951;-44
2022/05/29 16:22:40;;;;;;;;;;;;;;;;;;5066942;28;19979;-43
2022/05/29 16:25:07;;;;;;;;;;;;;;;;;;5066865;28;19936;-43
2022/05/29 16:27:33;;;;;;;;;;;;;;;;;;5065202;28;19912;-44
2022/05/29 16:29:59;;;;;;;;;;;;;;;;;;5065947;28;19913;-43
2022/05/29 16:32:25;;;;;;;;;;;;;;;;;;5065842;28;19969;-43
2022/05/29 16:34:51;;;;;;;;;;;;;;;;;;5087191;28;19915;-47
2022/05/29 16:48:35;;;;;;;;;;;;;;;;;;5066585;28;20657;-44
2022/05/29 16:51:01;;;;;;;;;;;;;;;;;;5064225;28;19923;-45
2022/05/29 16:53:27;;;;;;;;;;;;;;;;;;5083259;28;19915;-44
2022/05/29 16:55:53;;;;;;;;;;;;;;;;;;5070577;28;19916;-44
2022/05/29 16:58:19;;;;;;;;;;;;;;;;;;5065912;28;19946;-44
2022/05/29 17:00:45;;;;;;;;;;;;;;;;;;5072420;28;19914;-44
2022/05/29 17:03:11;;;;;;;;;;;;;;;;;;5084146;28;19970;-46
2022/05/29 17:05:37;;;;;;;;;;;;;;;;;;5083263;28;19912;-44
2022/05/29 17:08:02;;;;;;;;;;;;;;;;;;5066491;28;20010;-45
2022/05/29 17:10:30;;;;;;;;;;;;;;;;;;5065712;28;19905;-45
2022/05/29 17:12:56;;;;;;;;;;;;;;;;;;5065237;28;19904;-45
2022/05/29 17:15:22;;;;;;;;;;;;;;;;;;5063751;28;19912;-45
2022/05/29 17:17:48;;;;;;;;;;;;;;;;;;5064304;28;19908;-44
2022/05/29 17:20:15;;;;;;;;;;;;;;;;;;5064978;28;19908;-46
2022/05/29 17:22:41;;;;;;;;;;;;;;;;;;5062994;28;19978;-46
2022/05/29 17:25:07;;;;;;;;;;;;;;;;;;5064723;28;20465;-46
2022/05/29 17:27:33;;;;;;;;;;;;;;;;;;5065027;28;19919;-46
2022/05/29 17:29:59;;;;;;;;;;;;;;;;;;5064459;28;19909;-45